createdAt,value
2022-10-31T00:01:12.214Z,15.67
2022-10-31T00:03:39.551Z,15.87
2022-10-31T00:06:08.639Z,15.27
2022-10-31T00:08:36.066Z,16.50
2022-10-31T00:11:03.928Z,17.10
2022-10-31T00:13:31.321Z,18.83
2022-10-31T00:15:58.723Z,17.47
2022-10-31T00:18:26.146Z,17.70
2022-10-31T00:21:00.410Z,17.67
2022-10-31T00:23:29.106Z,18.10
2022-10-31T00:26:01.390Z,18.67
2022-10-31T00:28:28.753Z,18.90
2022-10-31T00:30:56.122Z,19.23
2022-10-31T00:33:23.508Z,20.23
2022-10-31T00:35:51.579Z,19.77
2022-10-31T00:38:18.979Z,19.90
2022-10-31T00:40:47.771Z,20.47
2022-10-31T00:43:15.147Z,19.37
2022-10-31T00:45:43.062Z,19.80
2022-10-31T00:48:10.587Z,19.67
2022-10-31T00:50:38.523Z,19.70
2022-10-31T00:53:05.911Z,21.03
2022-10-31T00:55:36.474Z,20.87
2022-10-31T00:58:05.904Z,20.63
2022-10-31T01:00:33.774Z,20.23
2022-10-31T01:03:01.603Z,20.73
2022-10-31T01:05:29.399Z,20.97
2022-10-31T01:07:56.732Z,20.53
2022-10-31T01:10:24.734Z,21.40
2022-10-31T01:12:52.942Z,23.40
2022-10-31T01:15:25.095Z,21.97
2022-10-31T01:17:52.427Z,21.17
2022-10-31T01:20:19.928Z,20.77
2022-10-31T01:22:47.358Z,21.73
2022-10-31T01:25:14.680Z,21.53
2022-10-31T01:27:42.520Z,21.87
2022-10-31T01:30:10.749Z,20.93
2022-10-31T01:32:39.451Z,21.93
2022-10-31T01:35:07.402Z,23.50
2022-10-31T01:37:34.799Z,21.43
2022-10-31T01:40:02.136Z,23.00
2022-10-31T01:42:29.492Z,23.37
2022-10-31T01:45:01.468Z,22.53
2022-10-31T01:47:34.680Z,22.17
2022-10-31T01:50:07.222Z,21.00
2022-10-31T01:52:37.592Z,22.30
2022-10-31T01:55:08.719Z,21.03
2022-10-31T01:57:37.756Z,21.90
2022-10-31T02:00:09.642Z,21.17
2022-10-31T02:02:43.349Z,23.03
2022-10-31T02:05:15.008Z,21.37
2022-10-31T02:07:46.663Z,21.87
2022-10-31T02:10:14.252Z,21.07
2022-10-31T02:12:42.647Z,21.70
2022-10-31T02:15:11.538Z,21.90
2022-10-31T02:17:38.995Z,20.80
2022-10-31T02:20:14.155Z,23.33
2022-10-31T02:22:51.571Z,22.17
2022-10-31T02:25:36.877Z,21.83
2022-10-31T02:28:26.376Z,23.23
2022-10-31T02:31:15.365Z,22.97
2022-10-31T02:33:45.739Z,22.30
2022-10-31T02:36:18.787Z,23.03
2022-10-31T02:38:53.460Z,22.80
2022-10-31T02:41:37.116Z,22.60
2022-10-31T02:44:10.832Z,22.50
2022-10-31T02:46:45.264Z,23.37
2022-10-31T02:49:24.724Z,23.77
2022-10-31T02:51:53.435Z,24.00
2022-10-31T02:54:23.851Z,21.50
2022-10-31T02:56:56.938Z,22.97
2022-10-31T02:59:25.100Z,22.37
2022-10-31T03:02:10.802Z,22.37
2022-10-31T03:04:58.555Z,23.37
2022-10-31T03:07:32.386Z,23.03
2022-10-31T03:10:06.921Z,23.20
2022-10-31T03:12:43.232Z,23.83
2022-10-31T03:15:17.066Z,23.53
2022-10-31T03:17:51.787Z,23.40
2022-10-31T03:20:23.369Z,24.03
2022-10-31T03:22:50.756Z,23.10
2022-10-31T03:25:18.735Z,23.77
2022-10-31T03:27:46.411Z,24.03
2022-10-31T03:30:14.966Z,23.23
2022-10-31T03:32:58.120Z,23.70
2022-10-31T03:35:27.800Z,24.90
2022-10-31T03:37:56.762Z,27.63
2022-10-31T03:40:25.439Z,24.87
2022-10-31T03:42:56.485Z,25.37
2022-10-31T03:45:25.879Z,23.43
2022-10-31T03:47:55.640Z,21.20
2022-10-31T03:50:23.655Z,24.63
2022-10-31T03:52:56.990Z,24.80
2022-10-31T03:55:30.150Z,24.77
2022-10-31T03:58:01.008Z,23.57
2022-10-31T04:00:28.836Z,23.90
2022-10-31T04:03:00.711Z,23.83
2022-10-31T04:05:31.640Z,24.93
2022-10-31T04:08:03.162Z,23.73
2022-10-31T04:10:33.511Z,23.93
2022-10-31T04:13:04.314Z,23.13
2022-10-31T04:15:40.182Z,23.40
2022-10-31T04:18:09.062Z,23.77
2022-10-31T04:20:39.375Z,25.10
2022-10-31T04:23:08.927Z,25.33
2022-10-31T04:25:40.262Z,24.33
2022-10-31T04:28:07.699Z,21.40
2022-10-31T04:30:35.153Z,21.27
2022-10-31T04:33:02.881Z,23.37
2022-10-31T04:35:32.235Z,24.27
2022-10-31T04:37:59.596Z,24.93
2022-10-31T04:40:26.983Z,24.93
2022-10-31T04:43:13.344Z,23.97
2022-10-31T04:45:43.691Z,24.67
2022-10-31T04:48:11.683Z,23.93
2022-10-31T04:50:42.371Z,24.40
2022-10-31T04:53:09.891Z,23.80
2022-10-31T04:55:48.311Z,23.97
2022-10-31T04:58:21.461Z,24.27
2022-10-31T05:00:53.563Z,25.07
2022-10-31T05:03:21.278Z,25.53
2022-10-31T05:05:50.253Z,25.87
2022-10-31T05:08:17.671Z,24.10
2022-10-31T05:10:48.744Z,27.13
2022-10-31T05:13:16.575Z,25.67
2022-10-31T05:16:13.163Z,24.83
2022-10-31T05:18:59.343Z,26.03
2022-10-31T05:21:54.061Z,24.53
2022-10-31T05:24:22.658Z,27.10
2022-10-31T05:26:50.518Z,25.40
2022-10-31T05:29:18.487Z,25.97
2022-10-31T05:31:45.795Z,25.10
2022-10-31T05:34:31.204Z,28.80
2022-10-31T05:37:15.604Z,27.77
2022-10-31T05:39:42.946Z,25.33
2022-10-31T05:42:15.066Z,27.43
2022-10-31T05:44:42.863Z,25.73
2022-10-31T05:47:21.364Z,27.80
2022-10-31T05:50:24.876Z,27.43
2022-10-31T05:53:07.385Z,27.50
2022-10-31T05:55:39.523Z,25.97
2022-10-31T05:58:13.470Z,29.03
2022-10-31T06:00:45.464Z,29.20
2022-10-31T06:03:13.671Z,28.70
2022-10-31T06:05:50.754Z,31.17
2022-10-31T06:08:22.939Z,30.73
2022-10-31T06:10:51.012Z,29.83
2022-10-31T06:13:24.487Z,29.87
2022-10-31T06:15:59.498Z,30.40
2022-10-31T06:18:33.608Z,30.63
2022-10-31T06:21:07.850Z,30.20
2022-10-31T06:23:38.266Z,33.57
2022-10-31T06:26:26.627Z,31.97
2022-10-31T06:28:54.343Z,30.87
2022-10-31T06:31:37.818Z,27.83
2022-10-31T06:34:05.159Z,28.97
2022-10-31T06:36:33.276Z,28.70
2022-10-31T06:39:02.191Z,31.50
2022-10-31T06:41:29.622Z,31.87
2022-10-31T06:43:57.784Z,30.93
2022-10-31T06:47:03.371Z,29.87
2022-10-31T06:49:50.064Z,31.50
2022-10-31T06:52:21.168Z,29.30
2022-10-31T06:54:49.823Z,31.93
2022-10-31T06:57:17.133Z,30.53
2022-10-31T06:59:44.795Z,31.70
2022-10-31T07:02:35.217Z,30.37
2022-10-31T07:05:02.863Z,29.20
2022-10-31T07:07:30.271Z,29.60
2022-10-31T07:09:59.001Z,26.93
2022-10-31T07:12:42.791Z,27.07
2022-10-31T07:15:10.882Z,26.40
2022-10-31T07:17:38.499Z,27.13
2022-10-31T07:20:07.267Z,29.13
2022-10-31T07:22:35.598Z,28.50
2022-10-31T07:25:06.286Z,28.93
2022-10-31T07:28:00.136Z,30.23
2022-10-31T07:30:27.946Z,30.30
2022-10-31T07:32:57.244Z,28.90
2022-10-31T07:35:29.829Z,29.87
2022-10-31T07:37:59.471Z,27.60
2022-10-31T07:40:28.430Z,28.20
2022-10-31T07:42:56.711Z,29.17
2022-10-31T07:46:00.071Z,29.33
2022-10-31T07:48:50.336Z,31.50
2022-10-31T07:51:36.104Z,29.73
2022-10-31T07:54:27.188Z,30.93
2022-10-31T07:56:56.370Z,31.33
2022-10-31T07:59:24.174Z,31.80
2022-10-31T08:01:51.558Z,30.30
2022-10-31T08:04:37.474Z,29.53
2022-10-31T08:07:23.915Z,31.73
2022-10-31T08:09:58.031Z,30.87
2022-10-31T08:12:30.804Z,30.27
2022-10-31T08:14:58.571Z,31.23
2022-10-31T08:17:25.919Z,29.70
2022-10-31T08:19:56.391Z,29.67
2022-10-31T08:22:31.628Z,30.27
2022-10-31T08:24:59.967Z,29.37
2022-10-31T08:27:29.014Z,28.70
2022-10-31T08:30:00.819Z,27.10
2022-10-31T08:32:28.178Z,26.90
2022-10-31T08:34:59.371Z,25.00
2022-10-31T08:37:35.586Z,25.17
2022-10-31T08:40:05.053Z,24.70
2022-10-31T08:42:35.300Z,23.47
2022-10-31T08:45:04.776Z,25.17
2022-10-31T08:47:35.984Z,24.93
2022-10-31T08:50:03.447Z,24.93
2022-10-31T08:52:58.760Z,25.07
2022-10-31T08:55:18.379Z,24.37
2022-10-31T08:58:05.227Z,24.60
2022-10-31T09:00:42.557Z,24.90
2022-10-31T09:03:19.692Z,24.63
2022-10-31T09:05:47.525Z,24.63
2022-10-31T09:08:17.022Z,23.93
2022-10-31T09:10:47.783Z,24.07
2022-10-31T09:13:21.715Z,23.97
2022-10-31T09:15:51.621Z,24.43
2022-10-31T09:18:25.251Z,23.07
2022-10-31T09:20:59.756Z,24.37
2022-10-31T09:23:28.749Z,24.83
2022-10-31T09:25:56.152Z,24.37
2022-10-31T09:28:34.207Z,23.80
2022-10-31T09:31:08.859Z,25.37
2022-10-31T09:33:50.571Z,23.27
2022-10-31T09:36:36.727Z,23.40
2022-10-31T09:39:05.585Z,23.17
2022-10-31T09:41:56.135Z,23.93
2022-10-31T09:44:37.892Z,24.77
2022-10-31T09:47:12.670Z,24.77
2022-10-31T09:49:57.404Z,24.27
2022-10-31T09:52:28.185Z,27.33
2022-10-31T09:54:57.215Z,26.77
2022-10-31T09:57:35.379Z,25.93
2022-10-31T10:00:05.521Z,24.57
2022-10-31T10:02:50.468Z,24.97
2022-10-31T10:05:21.696Z,25.83
2022-10-31T10:07:59.341Z,24.97
2022-10-31T10:10:52.426Z,27.83
2022-10-31T10:13:53.783Z,26.23
2022-10-31T10:16:34.024Z,26.70
2022-10-31T10:19:15.402Z,27.40
2022-10-31T10:21:50.571Z,29.23
2022-10-31T10:24:33.729Z,30.80
2022-10-31T10:27:07.405Z,31.07
2022-10-31T10:29:38.154Z,31.90
2022-10-31T10:32:10.335Z,31.90
2022-10-31T10:34:42.416Z,30.93
2022-10-31T10:37:19.290Z,30.90
2022-10-31T10:39:50.124Z,32.03
2022-10-31T10:42:35.864Z,31.57
2022-10-31T10:45:34.168Z,30.23
2022-10-31T10:48:10.123Z,31.93
2022-10-31T10:50:43.817Z,30.80
2022-10-31T10:53:36.136Z,31.00
2022-10-31T10:56:13.436Z,30.20
2022-10-31T10:58:42.579Z,29.07
2022-10-31T11:03:41.390Z,28.43
2022-10-31T11:06:22.780Z,28.83
2022-10-31T11:08:50.767Z,27.13
2022-10-31T11:11:26.260Z,27.13
2022-10-31T11:13:59.455Z,27.20
2022-10-31T11:16:36.802Z,28.03
2022-10-31T11:19:09.694Z,26.97
2022-10-31T11:21:38.380Z,26.67
2022-10-31T11:24:09.809Z,25.20
2022-10-31T11:26:38.908Z,26.33
2022-10-31T11:29:07.295Z,24.07
2022-10-31T11:31:36.627Z,25.57
2022-10-31T11:34:06.695Z,26.00
2022-10-31T11:36:35.922Z,24.87
2022-10-31T11:39:07.295Z,26.30
2022-10-31T11:41:36.779Z,27.37
2022-10-31T11:44:06.689Z,26.13
2022-10-31T11:46:37.372Z,25.33
2022-10-31T11:49:08.235Z,25.77
2022-10-31T11:51:36.426Z,24.80
2022-10-31T11:54:05.959Z,24.83
2022-10-31T11:56:40.620Z,24.83
2022-10-31T11:59:17.804Z,24.67
2022-10-31T12:01:49.413Z,25.80
2022-10-31T12:04:19.219Z,25.03
2022-10-31T12:06:47.861Z,24.40
2022-10-31T12:09:22.382Z,23.87
2022-10-31T12:12:01.276Z,23.47
2022-10-31T12:14:34.579Z,23.77
2022-10-31T12:17:07.023Z,22.40
2022-10-31T12:19:38.422Z,22.80
2022-10-31T12:22:15.914Z,21.43
2022-10-31T12:25:04.603Z,21.33
2022-10-31T12:27:41.159Z,20.17
2022-10-31T12:30:19.857Z,19.80
2022-10-31T12:33:10.723Z,19.97
2022-10-31T12:35:43.105Z,20.23
2022-10-31T12:38:26.651Z,19.23
2022-10-31T12:41:07.391Z,19.40
2022-10-31T12:43:42.829Z,19.93
2022-10-31T12:46:15.744Z,19.47
2022-10-31T12:49:04.306Z,18.83
2022-10-31T12:51:40.120Z,18.50
2022-10-31T12:54:21.277Z,19.20
2022-10-31T12:56:56.194Z,18.97
2022-10-31T12:59:29.483Z,17.87
2022-10-31T13:02:01.732Z,17.93
2022-10-31T13:04:37.358Z,18.67
2022-10-31T13:07:08.711Z,18.70
2022-10-31T13:09:39.466Z,18.43
2022-10-31T13:12:10.980Z,20.10
2022-10-31T13:14:41.254Z,18.53
2022-10-31T13:17:08.794Z,19.20
2022-10-31T13:19:40.039Z,19.70
2022-10-31T13:22:10.757Z,18.83
2022-10-31T13:24:41.502Z,19.37
2022-10-31T13:27:16.121Z,18.47
2022-10-31T13:29:48.488Z,19.00
2022-10-31T13:32:15.871Z,18.17
2022-10-31T13:34:46.821Z,17.50
2022-10-31T13:37:18.667Z,18.67
2022-10-31T13:40:00.115Z,18.57
2022-10-31T13:42:40.049Z,19.73
2022-10-31T13:45:15.236Z,19.07
2022-10-31T13:47:43.321Z,18.30
2022-10-31T13:50:25.228Z,17.77
2022-10-31T13:52:52.701Z,17.53
2022-10-31T13:55:40.741Z,17.27
2022-10-31T13:58:23.403Z,18.27
2022-10-31T14:01:00.784Z,17.97
2022-10-31T14:03:49.738Z,18.17
2022-10-31T14:06:16.953Z,18.50
2022-10-31T14:08:51.288Z,18.60
2022-10-31T14:11:23.525Z,17.70
2022-10-31T14:13:52.608Z,17.90
2022-10-31T14:16:22.780Z,17.33
2022-10-31T14:18:53.047Z,17.77
2022-10-31T14:21:29.376Z,16.80
2022-10-31T14:23:57.728Z,17.23
2022-10-31T14:26:36.129Z,17.87
2022-10-31T14:29:27.004Z,16.83
2022-10-31T14:31:56.556Z,17.03
2022-10-31T14:34:26.192Z,17.17
2022-10-31T14:37:12.256Z,15.97
2022-10-31T14:39:44.386Z,17.50
2022-10-31T14:42:21.483Z,16.97
2022-10-31T14:45:12.895Z,15.93
2022-10-31T14:47:47.316Z,16.33
2022-10-31T14:50:25.191Z,16.13
2022-10-31T14:52:54.957Z,15.80
2022-10-31T14:55:23.052Z,14.90
2022-10-31T14:57:51.847Z,15.27
2022-10-31T15:00:22.352Z,15.90
2022-10-31T15:02:56.680Z,16.10
2022-10-31T15:05:27.823Z,15.23
2022-10-31T15:07:56.804Z,15.07
2022-10-31T15:10:26.369Z,15.37
2022-10-31T15:12:54.495Z,15.30
2022-10-31T15:15:24.801Z,14.27
2022-10-31T15:17:55.190Z,14.93
2022-10-31T15:20:24.879Z,15.13
2022-10-31T15:22:52.530Z,14.73
2022-10-31T15:25:22.195Z,14.53
2022-10-31T15:27:50.356Z,13.80
2022-10-31T15:30:20.133Z,14.90
2022-10-31T15:32:57.425Z,14.97
2022-10-31T15:35:28.728Z,15.57
2022-10-31T15:37:57.041Z,15.03
2022-10-31T15:40:26.023Z,15.03
2022-10-31T15:42:55.232Z,14.97
2022-10-31T15:45:26.143Z,14.70
2022-10-31T15:47:58.984Z,15.07
2022-10-31T15:50:31.975Z,15.10
2022-10-31T15:53:00.751Z,15.53
2022-10-31T15:55:30.212Z,14.37
2022-10-31T15:57:58.957Z,14.50
2022-10-31T16:00:28.961Z,14.63
2022-10-31T16:03:09.115Z,16.10
2022-10-31T16:05:38.815Z,16.60
2022-10-31T16:08:06.560Z,16.87
2022-10-31T16:10:35.859Z,16.27
2022-10-31T16:13:04.126Z,16.90
2022-10-31T16:15:32.526Z,15.90
2022-10-31T16:18:01.726Z,16.03
2022-10-31T16:20:32.936Z,15.83
2022-10-31T16:23:01.102Z,15.70
2022-10-31T16:25:30.859Z,15.37
2022-10-31T16:28:05.876Z,15.53
2022-10-31T16:30:42.773Z,16.40
2022-10-31T16:33:26.791Z,16.67
2022-10-31T16:36:04.189Z,16.47
2022-10-31T16:38:37.126Z,15.23
2022-10-31T16:41:04.531Z,16.03
2022-10-31T16:43:31.831Z,16.03
2022-10-31T16:45:59.163Z,15.13
2022-10-31T16:48:26.512Z,15.47
2022-10-31T16:50:55.228Z,14.97
2022-10-31T16:53:22.589Z,14.73
2022-10-31T16:55:53.579Z,15.10
2022-10-31T16:58:23.995Z,14.67
2022-10-31T17:00:51.696Z,14.87
2022-10-31T17:03:19.223Z,14.73
2022-10-31T17:05:46.556Z,15.43
2022-10-31T17:08:15.399Z,15.43
2022-10-31T17:10:44.280Z,16.10
2022-10-31T17:13:15.475Z,15.13
2022-10-31T17:15:45.099Z,14.90
2022-10-31T17:18:13.235Z,15.37
2022-10-31T17:20:40.869Z,17.33
2022-10-31T17:23:10.451Z,16.30
2022-10-31T17:25:42.056Z,16.50
2022-10-31T17:28:12.667Z,15.87
2022-10-31T17:30:40.637Z,15.87
2022-10-31T17:33:08.331Z,16.23
2022-10-31T17:35:38.831Z,15.90
2022-10-31T17:38:06.289Z,16.43
2022-10-31T17:40:33.748Z,16.50
2022-10-31T17:43:04.745Z,17.20
2022-10-31T17:45:32.210Z,16.20
2022-10-31T17:47:59.720Z,16.07
2022-10-31T17:50:27.841Z,15.70
2022-10-31T17:52:55.219Z,15.43
2022-10-31T17:55:22.674Z,15.87
2022-10-31T17:57:51.328Z,15.90
2022-10-31T18:00:23.891Z,15.97
2022-10-31T18:02:51.400Z,16.40
2022-10-31T18:05:19.191Z,15.87
2022-10-31T18:07:50.479Z,17.50
2022-10-31T18:10:17.924Z,16.87
2022-10-31T18:12:45.440Z,16.63
2022-10-31T18:15:12.927Z,16.20
2022-10-31T18:17:42.405Z,17.03
2022-10-31T18:20:11.417Z,16.50
2022-10-31T18:22:38.822Z,16.50
2022-10-31T18:25:07.158Z,16.70
2022-10-31T18:27:34.575Z,16.83
2022-10-31T18:30:01.934Z,16.17
2022-10-31T18:32:29.824Z,16.80
2022-10-31T18:34:58.475Z,18.00
2022-10-31T18:37:25.802Z,17.67
2022-10-31T18:39:53.174Z,17.90
2022-10-31T18:42:20.512Z,18.23
2022-10-31T18:44:47.916Z,20.83
2022-10-31T18:47:15.247Z,19.37
2022-10-31T18:49:42.590Z,19.13
2022-10-31T18:52:11.356Z,18.07
2022-10-31T18:54:38.686Z,19.00
2022-10-31T18:57:06.086Z,18.37
2022-10-31T18:59:33.478Z,18.47
2022-10-31T19:02:00.932Z,18.20
2022-10-31T19:04:28.426Z,18.20
2022-10-31T19:06:56.145Z,19.13
2022-10-31T19:09:25.630Z,19.07
2022-10-31T19:11:52.956Z,18.33
2022-10-31T19:14:20.434Z,17.50
2022-10-31T19:16:49.197Z,19.27
2022-10-31T19:19:19.741Z,18.73
2022-10-31T19:21:47.155Z,18.70
2022-10-31T19:24:14.730Z,19.00
2022-10-31T19:26:43.427Z,19.53
2022-10-31T19:29:11.125Z,20.03
2022-10-31T19:31:38.535Z,18.90
2022-10-31T19:34:06.239Z,20.03
2022-10-31T19:36:35.930Z,20.50
2022-10-31T19:39:03.356Z,21.60
2022-10-31T19:41:31.428Z,21.13
2022-10-31T19:44:01.499Z,20.50
2022-10-31T19:49:16.207Z,20.07
2022-10-31T19:51:43.517Z,20.33
2022-10-31T19:54:11.742Z,18.43
2022-10-31T19:56:39.216Z,20.00
2022-10-31T19:59:07.924Z,19.23
2022-10-31T20:01:35.483Z,20.23
2022-10-31T20:04:02.878Z,20.67
2022-10-31T20:06:32.347Z,19.67
2022-10-31T20:09:01.408Z,20.73
2022-10-31T20:11:29.352Z,19.13
2022-10-31T20:13:57.426Z,20.80
2022-10-31T20:16:26.820Z,20.57
2022-10-31T20:18:54.576Z,19.83
2022-10-31T20:21:23.606Z,19.17
2022-10-31T20:23:53.968Z,19.70
2022-10-31T20:26:21.895Z,18.90
2022-10-31T20:28:49.312Z,20.13
2022-10-31T20:31:19.025Z,20.70
2022-10-31T20:33:48.012Z,20.57
2022-10-31T20:36:19.303Z,20.33
2022-10-31T20:38:47.110Z,21.27
2022-10-31T20:41:14.995Z,20.30
2022-10-31T20:43:42.589Z,19.80
2022-10-31T20:46:12.604Z,19.70
2022-10-31T20:48:39.999Z,20.50
2022-10-31T20:51:12.574Z,19.03
2022-10-31T20:53:40.091Z,20.17
2022-10-31T20:56:09.244Z,19.10
2022-10-31T20:58:37.088Z,18.80
2022-10-31T21:01:05.330Z,19.37
2022-10-31T21:03:32.903Z,17.40
2022-10-31T21:06:01.994Z,19.70
2022-10-31T21:08:31.535Z,18.83
2022-10-31T21:10:59.229Z,18.37
2022-10-31T21:13:27.926Z,17.60
2022-10-31T21:16:00.259Z,16.93
2022-10-31T21:18:27.629Z,17.10
2022-10-31T21:20:57.724Z,18.10
2022-10-31T21:23:25.072Z,18.17
2022-10-31T21:25:53.704Z,19.67
2022-10-31T21:28:21.008Z,19.83
2022-10-31T21:30:51.511Z,20.33
2022-10-31T21:33:19.152Z,19.43
2022-10-31T21:35:51.113Z,19.80
2022-10-31T21:38:18.568Z,20.20
2022-10-31T21:40:46.051Z,19.20
2022-10-31T21:43:14.720Z,19.40
2022-10-31T21:45:43.144Z,19.40
2022-10-31T21:48:10.545Z,19.17
2022-10-31T21:50:37.933Z,19.33
2022-10-31T21:53:19.295Z,18.57
2022-10-31T21:55:46.636Z,18.07
2022-10-31T21:58:15.342Z,17.70
2022-10-31T22:00:42.797Z,17.90
2022-10-31T22:03:10.267Z,18.93
2022-10-31T22:05:37.642Z,18.10
2022-10-31T22:08:05.527Z,18.87
2022-10-31T22:10:32.843Z,17.50
2022-10-31T22:13:00.177Z,19.40
2022-10-31T22:15:28.839Z,17.73
2022-10-31T22:17:56.215Z,17.30
2022-10-31T22:20:26.128Z,17.43
2022-10-31T22:22:53.541Z,18.17
2022-10-31T22:25:20.860Z,16.20
2022-10-31T22:27:48.184Z,17.23
2022-10-31T22:30:15.596Z,17.60
2022-10-31T22:32:44.275Z,18.57
2022-10-31T22:35:11.808Z,17.93
2022-10-31T22:37:39.142Z,17.57
2022-10-31T22:40:07.832Z,16.70
2022-10-31T22:42:35.155Z,17.30
2022-10-31T22:45:03.631Z,16.97
2022-10-31T22:47:31.056Z,17.00
2022-10-31T22:49:59.799Z,16.07
2022-10-31T22:52:27.123Z,17.20
2022-10-31T22:54:58.352Z,15.70
2022-10-31T22:57:26.836Z,15.43
2022-10-31T22:59:54.508Z,15.63
2022-10-31T23:02:22.026Z,15.57
2022-10-31T23:04:49.404Z,16.47
2022-10-31T23:07:23.014Z,16.23
2022-10-31T23:09:51.662Z,16.30
2022-10-31T23:12:36.412Z,16.47
2022-10-31T23:15:03.997Z,16.50
2022-10-31T23:17:31.422Z,16.50
2022-10-31T23:19:58.758Z,16.57
2022-10-31T23:22:27.411Z,16.67
2022-10-31T23:24:54.761Z,16.20
2022-10-31T23:27:22.883Z,16.80
2022-10-31T23:29:51.771Z,17.27
2022-10-31T23:32:20.934Z,16.90
2022-10-31T23:34:49.173Z,17.03
2022-10-31T23:37:17.386Z,17.30
2022-10-31T23:39:46.079Z,17.10
2022-10-31T23:42:15.376Z,17.33
2022-10-31T23:44:42.955Z,17.43
2022-10-31T23:47:10.503Z,18.53
2022-10-31T23:49:37.899Z,18.83
2022-10-31T23:52:05.641Z,18.13
2022-10-31T23:54:33.211Z,18.73
2022-10-31T23:57:01.987Z,18.27
2022-10-31T23:59:29.851Z,18.50
